Terminal Aerodrome Forecast
Issued by NWS

Home | Current Version | Previous Version | Graphics & Text | Print | Product List | Glossary On
Versions: 1 2 3 4 5 6 7 8 9 10 11 12 13 14 15 16 17 18 19 20 21 22 23 24
000
FTUS41 KCLE 270800 AAA
TAFFDY
TAF AMD
KFDY 270814Z 2708/2806 28003KT 3SM BR SCT002 BKN060
      TEMPO 2708/2710 1/4SM FG BKN002
     FM271000 32005KT 4SM BR SCT005 BKN050
      TEMPO 2710/2713 2SM BR BKN005
     FM271400 01006KT P6SM SCT015
     FM271800 01006KT P6SM SCT030
     FM280000 02004KT P6SM SCT250=

USA.gov is the U.S. government's official web portal to all federal, state and local government web resources and services.